.
Local / Fort Wayne - NE Ind.

U N D E R   C O N S T R U C T I O N

Local Weather
Fort Wayne – NE Indiana

Northern Indiana (IWX) Radar

Latest IWX NEXRAD
Base Reflectivity



Latest IWX NEXRAD
Base Velocity

Indiana-Ohio Visible Satellite

For infrared and water vapor imagery, see Great Lakes - Midwest.

Current Conditions

Recent report from the Fort Wayne International Airport

Feb 23, 2019 - 02:54 AM EST / 2019.02.23 0754 UTC


The skies are overcast. The temperature is 33.1 F (0.6 C) and the dew point is 28.0 F (-2.2 C), giving a relative humidity of 81%. The barometric pressure is 30.24 in. Hg (1024 hPa). The wind is from the E (080 degrees) at 12 MPH (10 KT) creating a wind chill temperature of 24 F (-4 C), and the visibility is 9 mile(s).

KFWA 230754Z 08010KT 9SM OVC095 01/M02 A3024 RMK AO2 SLP247 T00061022

Local Weather — Contents

Local Weather — Links

CoCoRaHS
IN-AL-39
A2 Web Hosting
Creative Commons License
GoDaddy
search engine by freefind advanced

loaded 2019-02-23 03:47:41 • last modified 2017-02-11 13:27:36
Privacy PolicyDisclaimer
• wx.awcolley.com is powered by PmWiki v.2002016 •
• all content (unless otherwise noted) © 2019 A W Colley